createdAt,value
2022-08-03T00:04:17.520Z,73.25
2022-08-03T00:09:49.184Z,73.10
2022-08-03T00:12:01.520Z,72.98
2022-08-03T00:17:53.386Z,71.99
2022-08-03T00:23:05.341Z,74.06
2022-08-03T00:28:36.968Z,74.29
2022-08-03T00:34:08.788Z,73.55
2022-08-03T00:45:09.532Z,73.67
2022-08-03T00:50:41.302Z,74.71
2022-08-03T00:56:13.392Z,74.28
2022-08-03T03:02:33.429Z,77.50
2022-08-03T03:08:05.202Z,77.87
2022-08-03T03:13:36.949Z,77.93
2022-08-03T03:19:08.834Z,77.92
2022-08-03T03:24:40.557Z,77.78
2022-08-03T03:30:12.419Z,78.78
2022-08-03T03:35:44.443Z,78.75
2022-08-03T03:41:16.716Z,78.62
2022-08-03T03:46:48.590Z,78.28
2022-08-03T03:52:20.307Z,79.01
2022-08-03T03:57:52.264Z,78.72
2022-08-03T04:03:23.932Z,79.42
2022-08-03T04:08:56.151Z,79.52
2022-08-03T04:14:27.958Z,79.26
2022-08-03T04:19:59.596Z,79.07
2022-08-03T04:25:31.397Z,76.36
2022-08-03T04:31:03.308Z,74.97
2022-08-03T04:36:35.326Z,72.89
2022-08-03T04:42:08.720Z,70.41
2022-08-03T04:47:39.162Z,67.21
2022-08-03T04:53:10.814Z,64.82
2022-08-03T04:58:42.856Z,61.37
2022-08-03T05:04:14.987Z,60.47
2022-08-03T05:09:50.659Z,59.81
2022-08-03T05:15:18.466Z,61.45
2022-08-03T05:20:50.181Z,62.59
2022-08-03T05:26:22.015Z,62.54
2022-08-03T05:31:53.683Z,63.92
2022-08-03T05:37:25.383Z,64.17
2022-08-03T05:42:57.150Z,64.61
2022-08-03T05:48:28.756Z,63.99
2022-08-03T05:54:00.818Z,61.94
2022-08-03T05:59:39.478Z,60.23
2022-08-03T06:05:04.411Z,55.13
2022-08-03T06:10:38.264Z,49.33
2022-08-03T06:16:07.960Z,49.47
2022-08-03T06:21:39.885Z,46.84
2022-08-03T06:27:11.586Z,44.40
2022-08-03T06:32:43.664Z,41.76
2022-08-03T06:38:15.764Z,41.41
2022-08-03T06:44:03.305Z,40.58
2022-08-03T06:49:19.200Z,39.47
2022-08-03T06:54:51.111Z,40.05
2022-08-03T07:00:23.483Z,39.51
2022-08-03T07:05:55.644Z,38.77
2022-08-03T07:11:27.446Z,39.90
2022-08-03T07:16:59.276Z,39.74
2022-08-03T07:22:31.364Z,40.03
2022-08-03T07:28:03.471Z,38.69
2022-08-03T07:33:35.563Z,40.14
2022-08-03T07:39:15.934Z,39.78
2022-08-03T07:44:39.837Z,40.62
2022-08-03T07:50:12.051Z,41.26
2022-08-03T07:55:43.723Z,40.83
2022-08-03T08:01:15.455Z,42.12
2022-08-03T08:12:17.245Z,40.27
2022-08-03T08:17:49.070Z,39.54
2022-08-03T08:23:29.857Z,39.51
2022-08-03T08:28:52.294Z,38.34
2022-08-03T08:34:23.407Z,38.48
2022-08-03T08:39:54.778Z,37.95
2022-08-03T08:45:26.393Z,37.06
2022-08-03T08:50:58.169Z,37.26
2022-08-03T08:56:30.256Z,38.13
2022-08-03T09:02:01.914Z,37.43
2022-08-03T09:07:33.916Z,37.87
2022-08-03T09:13:05.356Z,37.06
2022-08-03T09:18:36.668Z,36.21
2022-08-03T09:24:16.467Z,37.11
2022-08-03T09:29:41.009Z,37.51
2022-08-03T09:35:12.958Z,38.16
2022-08-03T09:40:44.797Z,37.23
2022-08-03T09:48:29.643Z,35.37
2022-08-03T09:54:01.470Z,37.27
2022-08-03T09:59:32.866Z,36.40
2022-08-03T10:05:04.476Z,37.57
2022-08-03T10:10:36.234Z,38.16
2022-08-03T10:16:22.329Z,38.73
2022-08-03T10:21:40.085Z,38.29
2022-08-03T10:27:11.908Z,39.03
2022-08-03T10:32:43.629Z,38.67
2022-08-03T10:38:15.123Z,39.49
2022-08-03T10:43:46.596Z,38.88
2022-08-03T10:49:33.658Z,38.74
2022-08-03T10:54:50.469Z,38.94
2022-08-03T11:00:22.438Z,39.01
2022-08-03T11:05:54.149Z,38.09
2022-08-03T11:11:25.661Z,36.81
2022-08-03T11:16:57.544Z,36.86
2022-08-03T11:22:29.455Z,35.64
2022-08-03T11:28:01.134Z,36.18
2022-08-03T11:33:32.622Z,35.46
2022-08-03T11:39:04.853Z,33.63
2022-08-03T11:44:36.956Z,34.74
2022-08-03T11:50:08.721Z,34.74
2022-08-03T11:55:40.398Z,33.40
2022-08-03T12:01:12.141Z,32.74
2022-08-03T12:06:47.261Z,31.64
2022-08-03T12:12:15.829Z,32.37
2022-08-03T12:17:47.575Z,32.15
2022-08-03T12:23:19.071Z,32.69
2022-08-03T12:28:50.287Z,32.35
2022-08-03T12:34:21.757Z,31.94
2022-08-03T12:40:02.938Z,32.36
2022-08-03T12:45:25.633Z,31.95
2022-08-03T12:50:57.487Z,32.00
2022-08-03T12:56:29.137Z,31.51
2022-08-03T13:02:01.052Z,31.69
2022-08-03T13:07:32.722Z,30.82
2022-08-03T13:13:04.365Z,31.01
2022-08-03T13:18:35.988Z,30.79
2022-08-03T13:24:07.551Z,30.04
2022-08-03T13:29:39.256Z,29.92
2022-08-03T13:35:11.349Z,28.88
2022-08-03T13:40:42.874Z,29.25
2022-08-03T13:46:14.676Z,29.88
2022-08-03T13:51:46.487Z,29.87
2022-08-03T13:58:18.974Z,29.21
2022-08-03T14:02:50.816Z,29.05
2022-08-03T14:08:22.633Z,28.84
2022-08-03T14:13:54.222Z,28.88
2022-08-03T14:19:26.135Z,28.24
2022-08-03T14:24:57.467Z,29.53
2022-08-03T14:30:28.950Z,28.43
2022-08-03T14:36:00.810Z,28.71
2022-08-03T14:41:32.687Z,29.40
2022-08-03T14:47:04.642Z,28.18
2022-08-03T14:52:36.290Z,29.75
2022-08-03T14:58:20.650Z,30.99
2022-08-03T15:03:39.864Z,29.30
2022-08-03T15:14:44.449Z,29.15
2022-08-03T15:26:04.113Z,30.15
2022-08-03T15:31:19.384Z,31.11
2022-08-03T15:42:22.893Z,31.74
2022-08-03T15:47:54.034Z,32.17
2022-08-03T15:53:25.502Z,31.47
2022-08-03T15:59:03.157Z,31.95
2022-08-03T16:04:28.335Z,31.50
2022-08-03T16:10:00.135Z,31.60
2022-08-03T16:15:31.853Z,31.64
2022-08-03T16:21:03.064Z,32.12
2022-08-03T16:26:34.943Z,32.00
2022-08-03T16:32:09.153Z,31.89
2022-08-03T16:37:39.185Z,31.54
2022-08-03T16:43:09.417Z,31.90
2022-08-03T16:54:14.088Z,31.57
2022-08-03T16:59:44.863Z,33.12
2022-08-03T17:05:16.419Z,32.95
2022-08-03T17:10:48.068Z,33.66
2022-08-03T17:16:19.871Z,33.63
2022-08-03T17:21:51.638Z,33.97
2022-08-03T17:28:51.302Z,33.99
2022-08-03T17:32:57.430Z,33.80
2022-08-03T17:38:25.918Z,33.94
2022-08-03T17:44:15.809Z,33.70
2022-08-03T17:49:29.191Z,34.45
2022-08-03T17:55:55.830Z,33.68
2022-08-03T18:00:32.770Z,33.60
2022-08-03T18:06:10.987Z,34.25
2022-08-03T18:11:38.862Z,33.72
2022-08-03T18:17:10.228Z,33.81
2022-08-03T18:22:39.902Z,34.01
2022-08-03T18:28:11.655Z,34.12
2022-08-03T18:34:16.351Z,34.42
2022-08-03T18:39:14.849Z,34.76
2022-08-03T18:44:54.204Z,34.88
2022-08-03T18:50:19.022Z,35.46
2022-08-03T18:56:01.333Z,35.83
2022-08-03T19:02:00.610Z,36.45
2022-08-03T19:06:52.500Z,36.82
2022-08-03T19:12:32.420Z,37.47
2022-08-03T19:17:55.940Z,37.87
2022-08-03T19:23:30.818Z,38.03
2022-08-03T19:28:58.931Z,38.68
2022-08-03T19:34:30.402Z,39.36
2022-08-03T19:40:02.356Z,39.45
2022-08-03T19:46:05.152Z,40.38
2022-08-03T19:51:12.099Z,40.29
2022-08-03T19:58:57.588Z,41.23
2022-08-03T20:04:29.988Z,42.18
2022-08-03T20:10:01.825Z,43.20
2022-08-03T20:15:32.956Z,43.86
2022-08-03T20:21:04.225Z,44.46
2022-08-03T20:26:35.703Z,45.16
2022-08-03T20:32:07.184Z,45.17
2022-08-03T20:37:38.801Z,45.69
2022-08-03T20:43:10.759Z,45.52
2022-08-03T20:48:42.174Z,46.24
2022-08-03T20:54:22.941Z,47.15
2022-08-03T20:59:47.066Z,47.71
2022-08-03T21:05:16.124Z,47.80
2022-08-03T21:10:47.654Z,47.56
2022-08-03T21:16:19.494Z,48.22
2022-08-03T21:21:51.106Z,48.68
2022-08-03T21:27:23.036Z,48.72
2022-08-03T21:32:55.673Z,49.31
2022-08-03T21:38:29.814Z,49.27
2022-08-03T21:43:59.612Z,50.23
2022-08-03T21:50:05.214Z,49.70
2022-08-03T21:55:03.628Z,49.88
2022-08-03T22:00:35.491Z,50.93
2022-08-03T22:06:07.086Z,50.96
2022-08-03T22:11:38.835Z,51.18
2022-08-03T22:17:10.770Z,51.33
2022-08-03T22:22:42.460Z,52.06
2022-08-03T22:28:14.264Z,53.15
2022-08-03T22:33:45.876Z,52.52
2022-08-03T22:39:25.486Z,54.24
2022-08-03T22:44:49.404Z,53.96
2022-08-03T22:50:31.234Z,53.44
2022-08-03T22:55:53.071Z,54.41
2022-08-03T23:01:24.924Z,54.57
2022-08-03T23:06:56.927Z,54.36
2022-08-03T23:12:28.524Z,55.35
2022-08-03T23:18:00.404Z,55.35
2022-08-03T23:23:44.447Z,56.08
2022-08-03T23:29:03.961Z,57.59
2022-08-03T23:40:05.159Z,59.09
2022-08-03T23:47:57.684Z,59.89
2022-08-03T23:53:28.987Z,60.68
2022-08-03T23:59:00.954Z,60.18
